Time,TemperatureF,DewpointF,PressureIn,WindDirection,WindDirectionDegrees,WindSpeedMPH,WindSpeedGustMPH,Humidity,HourlyPrecipIn,Conditions,Clouds,dailyrainin,SolarRadiationWatts/m^2,SoftwareType,DateUTC
2013-11-10 05:12:00,44.0,35.0,-100.00,North,354,3.0,5.0,71,-99.99,,,-99.99,0.000000,,2013-11-10 11:12:00,
2013-11-10 05:22:00,44.0,35.0,-100.00,North,354,3.0,5.0,71,-99.99,,,-99.99,0.000000,,2013-11-10 11:22:00,
2013-11-10 05:33:00,44.0,35.0,-100.00,North,354,3.0,5.0,71,-99.99,,,-99.99,0.000000,,2013-11-10 11:33:00,
2013-11-10 05:43:00,44.0,35.0,-100.00,North,354,3.0,5.0,71,-99.99,,,-99.99,0.000000,,2013-11-10 11:43:00,
2013-11-10 09:11:00,44.0,32.0,-100.00,North,349,3.0,6.0,63,-99.99,,,0.00,43.000000,,2013-11-10 15:11:00,
2013-11-10 09:22:00,44.0,32.0,-100.00,North,349,3.0,6.0,63,-99.99,,,0.00,43.000000,,2013-11-10 15:22:00,
2013-11-10 09:33:00,44.0,32.0,-100.00,North,349,3.0,6.0,63,-99.99,,,0.00,43.000000,,2013-11-10 15:33:00,
2013-11-10 09:43:00,44.0,32.0,-100.00,North,349,3.0,6.0,63,-99.99,,,0.00,43.000000,,2013-11-10 15:43:00,
2013-11-10 10:12:00,46.0,31.0,-100.00,West,277,4.0,9.0,55,0.00,,,0.00,83.000000,,2013-11-10 16:12:00,
2013-11-10 10:23:00,46.0,31.0,-100.00,West,277,4.0,9.0,55,0.00,,,0.00,83.000000,,2013-11-10 16:23:00,
2013-11-10 10:33:00,46.0,31.0,-100.00,West,277,4.0,9.0,55,0.00,,,0.00,83.000000,,2013-11-10 16:33:00,
2013-11-10 10:42:00,46.0,31.0,-100.00,West,277,4.0,9.0,55,0.00,,,0.00,83.000000,,2013-11-10 16:42:00,
2013-11-10 11:23:00,50.0,30.0,-100.00,NNE,14,4.0,6.0,46,0.00,,,0.00,147.000000,,2013-11-10 17:23:00,
2013-11-10 11:34:00,50.0,30.0,-100.00,NNE,14,4.0,6.0,46,0.00,,,0.00,147.000000,,2013-11-10 17:34:00,
2013-11-10 11:43:00,50.0,30.0,-100.00,NNE,14,4.0,6.0,46,0.00,,,0.00,147.000000,,2013-11-10 17:43:00,
2013-11-10 12:24:00,53.0,30.0,-100.00,NNW,327,3.0,7.0,41,0.00,,,-99.99,413.000000,,2013-11-10 18:24:00,
2013-11-10 12:32:00,53.0,30.0,-100.00,NNW,327,3.0,7.0,41,0.00,,,-99.99,413.000000,,2013-11-10 18:32:00,
2013-11-10 12:42:00,53.0,30.0,-100.00,NNW,327,3.0,7.0,41,0.00,,,-99.99,413.000000,,2013-11-10 18:42:00,
2013-11-10 13:22:00,55.0,30.0,-100.00,NW,313,3.0,7.0,38,0.00,,,0.00,554.000000,,2013-11-10 19:22:00,
2013-11-10 13:32:00,55.0,30.0,-100.00,NW,313,3.0,7.0,38,0.00,,,0.00,554.000000,,2013-11-10 19:32:00,
2013-11-10 13:42:00,55.0,30.0,-100.00,NW,313,3.0,7.0,38,0.00,,,0.00,554.000000,,2013-11-10 19:42:00,
2013-11-10 14:22:00,53.0,27.0,-100.00,North,351,3.0,8.0,37,0.00,,,0.00,458.000000,,2013-11-10 20:22:00,
2013-11-10 14:32:00,53.0,27.0,-100.00,North,351,3.0,8.0,37,0.00,,,0.00,458.000000,,2013-11-10 20:32:00,
2013-11-10 14:42:00,53.0,27.0,-100.00,North,351,3.0,8.0,37,0.00,,,0.00,458.000000,,2013-11-10 20:42:00,
2013-11-10 15:11:00,52.0,28.0,-100.00,WNW,286,3.0,9.0,40,0.00,,,0.00,64.000000,,2013-11-10 21:11:00,
2013-11-10 15:22:00,52.0,28.0,-100.00,WNW,286,3.0,9.0,40,0.00,,,0.00,64.000000,,2013-11-10 21:22:00,
2013-11-10 15:33:00,52.0,28.0,-100.00,WNW,286,3.0,9.0,40,0.00,,,0.00,64.000000,,2013-11-10 21:33:00,
2013-11-10 15:43:00,52.0,28.0,-100.00,WNW,286,3.0,9.0,40,0.00,,,0.00,64.000000,,2013-11-10 21:43:00,
2013-11-10 16:23:00,52.0,28.0,-100.00,WNW,299,2.0,5.0,40,0.00,,,0.00,61.000000,,2013-11-10 22:23:00,
2013-11-10 16:34:00,52.0,28.0,-100.00,WNW,299,2.0,5.0,40,0.00,,,0.00,61.000000,,2013-11-10 22:34:00,
2013-11-10 16:43:00,52.0,28.0,-100.00,WNW,299,2.0,5.0,40,0.00,,,0.00,61.000000,,2013-11-10 22:43:00,